sensor_id;sensor_type;location;lat;lon;timestamp;P1;durP1;ratioP1;P2;durP2;ratioP2
24813;SDS011;12904;50.088;11.414;2022-08-19T00:00:28;35.45;;;31.83;;
24813;SDS011;12904;50.088;11.414;2022-08-19T00:02:54;35.60;;;31.27;;
24813;SDS011;12904;50.088;11.414;2022-08-19T00:05:21;32.88;;;29.45;;
24813;SDS011;12904;50.088;11.414;2022-08-19T00:07:47;29.95;;;27.08;;
24813;SDS011;12904;50.088;11.414;2022-08-19T00:10:15;29.45;;;26.67;;
24813;SDS011;12904;50.088;11.414;2022-08-19T00:12:41;29.23;;;26.40;;
24813;SDS011;12904;50.088;11.414;2022-08-19T00:15:08;30.80;;;27.75;;
24813;SDS011;12904;50.088;11.414;2022-08-19T00:17:37;28.65;;;25.95;;
24813;SDS011;12904;50.088;11.414;2022-08-19T00:20:07;29.60;;;26.80;;
24813;SDS011;12904;50.088;11.414;2022-08-19T00:22:35;32.53;;;29.02;;
24813;SDS011;12904;50.088;11.414;2022-08-19T00:25:02;30.80;;;27.55;;
24813;SDS011;12904;50.088;11.414;2022-08-19T00:27:28;33.80;;;30.35;;
24813;SDS011;12904;50.088;11.414;2022-08-19T00:29:54;35.45;;;31.13;;
24813;SDS011;12904;50.088;11.414;2022-08-19T00:32:19;31.30;;;28.30;;
24813;SDS011;12904;50.088;11.414;2022-08-19T00:34:45;32.45;;;28.70;;
24813;SDS011;12904;50.088;11.414;2022-08-19T00:37:11;30.35;;;27.27;;
24813;SDS011;12904;50.088;11.414;2022-08-19T00:39:37;34.92;;;30.83;;
24813;SDS011;12904;50.088;11.414;2022-08-19T00:42:03;30.85;;;27.63;;
24813;SDS011;12904;50.088;11.414;2022-08-19T00:44:31;32.65;;;29.20;;
24813;SDS011;12904;50.088;11.414;2022-08-19T00:46:57;34.10;;;30.42;;
24813;SDS011;12904;50.088;11.414;2022-08-19T00:51:50;36.90;;;32.88;;
24813;SDS011;12904;50.088;11.414;2022-08-19T00:54:20;38.08;;;33.55;;
24813;SDS011;12904;50.088;11.414;2022-08-19T00:56:46;34.58;;;30.70;;
24813;SDS011;12904;50.088;11.414;2022-08-19T00:59:14;36.15;;;32.25;;
24813;SDS011;12904;50.088;11.414;2022-08-19T01:01:41;32.67;;;29.45;;
24813;SDS011;12904;50.088;11.414;2022-08-19T01:04:08;32.92;;;29.30;;
24813;SDS011;12904;50.088;11.414;2022-08-19T01:06:35;33.13;;;29.73;;
24813;SDS011;12904;50.088;11.414;2022-08-19T01:09:03;36.10;;;30.70;;
24813;SDS011;12904;50.088;11.414;2022-08-19T01:11:30;32.95;;;29.73;;
24813;SDS011;12904;50.088;11.414;2022-08-19T01:13:59;35.42;;;31.80;;
24813;SDS011;12904;50.088;11.414;2022-08-19T01:16:25;34.92;;;31.15;;
24813;SDS011;12904;50.088;11.414;2022-08-19T01:18:53;34.38;;;30.85;;
24813;SDS011;12904;50.088;11.414;2022-08-19T01:21:23;36.95;;;33.03;;
24813;SDS011;12904;50.088;11.414;2022-08-19T01:24:14;36.05;;;32.20;;
24813;SDS011;12904;50.088;11.414;2022-08-19T01:26:41;33.47;;;29.92;;
24813;SDS011;12904;50.088;11.414;2022-08-19T01:29:10;34.45;;;29.05;;
24813;SDS011;12904;50.088;11.414;2022-08-19T01:31:36;37.90;;;32.92;;
24813;SDS011;12904;50.088;11.414;2022-08-19T01:34:04;38.10;;;33.83;;
24813;SDS011;12904;50.088;11.414;2022-08-19T01:36:32;35.95;;;32.05;;
24813;SDS011;12904;50.088;11.414;2022-08-19T01:39:09;34.95;;;31.30;;
24813;SDS011;12904;50.088;11.414;2022-08-19T01:41:36;39.95;;;31.35;;
24813;SDS011;12904;50.088;11.414;2022-08-19T01:44:02;31.88;;;28.73;;
24813;SDS011;12904;50.088;11.414;2022-08-19T01:46:29;32.13;;;28.75;;
24813;SDS011;12904;50.088;11.414;2022-08-19T01:48:55;31.38;;;28.23;;
24813;SDS011;12904;50.088;11.414;2022-08-19T01:51:21;30.70;;;26.90;;
24813;SDS011;12904;50.088;11.414;2022-08-19T01:53:48;34.92;;;31.20;;
24813;SDS011;12904;50.088;11.414;2022-08-19T01:56:15;33.45;;;30.00;;
24813;SDS011;12904;50.088;11.414;2022-08-19T01:58:43;32.25;;;28.98;;
24813;SDS011;12904;50.088;11.414;2022-08-19T02:01:15;34.78;;;28.48;;
24813;SDS011;12904;50.088;11.414;2022-08-19T02:03:41;33.55;;;29.98;;
24813;SDS011;12904;50.088;11.414;2022-08-19T02:06:07;30.88;;;27.60;;
24813;SDS011;12904;50.088;11.414;2022-08-19T02:08:34;36.13;;;30.73;;
24813;SDS011;12904;50.088;11.414;2022-08-19T02:11:01;33.50;;;29.88;;
24813;SDS011;12904;50.088;11.414;2022-08-19T02:13:28;32.78;;;29.60;;
24813;SDS011;12904;50.088;11.414;2022-08-19T02:15:54;33.67;;;29.52;;
24813;SDS011;12904;50.088;11.414;2022-08-19T02:18:19;34.63;;;31.02;;
24813;SDS011;12904;50.088;11.414;2022-08-19T02:20:48;33.72;;;30.35;;
24813;SDS011;12904;50.088;11.414;2022-08-19T02:23:15;31.42;;;28.45;;
24813;SDS011;12904;50.088;11.414;2022-08-19T02:25:42;33.53;;;30.17;;
24813;SDS011;12904;50.088;11.414;2022-08-19T02:28:10;33.05;;;29.73;;
24813;SDS011;12904;50.088;11.414;2022-08-19T02:30:36;33.15;;;29.88;;
24813;SDS011;12904;50.088;11.414;2022-08-19T02:33:03;30.80;;;27.63;;
24813;SDS011;12904;50.088;11.414;2022-08-19T02:35:29;30.40;;;27.30;;
24813;SDS011;12904;50.088;11.414;2022-08-19T02:37:55;28.10;;;25.55;;
24813;SDS011;12904;50.088;11.414;2022-08-19T02:40:40;28.27;;;25.58;;
24813;SDS011;12904;50.088;11.414;2022-08-19T02:43:06;31.38;;;24.35;;
24813;SDS011;12904;50.088;11.414;2022-08-19T02:45:38;26.33;;;23.90;;
24813;SDS011;12904;50.088;11.414;2022-08-19T02:48:06;25.10;;;22.80;;
24813;SDS011;12904;50.088;11.414;2022-08-19T02:50:38;23.05;;;21.25;;
24813;SDS011;12904;50.088;11.414;2022-08-19T02:53:04;24.97;;;22.50;;
24813;SDS011;12904;50.088;11.414;2022-08-19T02:55:32;25.10;;;22.63;;
24813;SDS011;12904;50.088;11.414;2022-08-19T02:57:57;27.85;;;25.00;;
24813;SDS011;12904;50.088;11.414;2022-08-19T03:00:24;26.33;;;23.95;;
24813;SDS011;12904;50.088;11.414;2022-08-19T03:02:51;26.33;;;24.08;;
24813;SDS011;12904;50.088;11.414;2022-08-19T03:05:17;28.67;;;26.08;;
24813;SDS011;12904;50.088;11.414;2022-08-19T03:07:43;25.38;;;23.10;;
24813;SDS011;12904;50.088;11.414;2022-08-19T03:10:09;25.30;;;23.10;;
24813;SDS011;12904;50.088;11.414;2022-08-19T03:12:35;27.15;;;24.58;;
24813;SDS011;12904;50.088;11.414;2022-08-19T03:15:03;28.73;;;25.95;;
24813;SDS011;12904;50.088;11.414;2022-08-19T03:17:31;27.00;;;24.58;;
24813;SDS011;12904;50.088;11.414;2022-08-19T03:19:56;24.88;;;22.58;;
24813;SDS011;12904;50.088;11.414;2022-08-19T03:22:22;26.95;;;24.30;;
24813;SDS011;12904;50.088;11.414;2022-08-19T03:24:48;28.05;;;25.38;;
24813;SDS011;12904;50.088;11.414;2022-08-19T03:27:13;27.23;;;24.58;;
24813;SDS011;12904;50.088;11.414;2022-08-19T03:29:39;26.45;;;23.85;;
24813;SDS011;12904;50.088;11.414;2022-08-19T03:32:06;25.65;;;23.25;;
24813;SDS011;12904;50.088;11.414;2022-08-19T03:34:32;26.63;;;24.08;;
24813;SDS011;12904;50.088;11.414;2022-08-19T03:37:03;26.05;;;23.50;;
24813;SDS011;12904;50.088;11.414;2022-08-19T03:39:37;24.42;;;22.33;;
24813;SDS011;12904;50.088;11.414;2022-08-19T03:42:04;23.60;;;21.75;;
24813;SDS011;12904;50.088;11.414;2022-08-19T03:44:30;25.73;;;23.42;;
24813;SDS011;12904;50.088;11.414;2022-08-19T03:46:58;25.63;;;23.27;;
24813;SDS011;12904;50.088;11.414;2022-08-19T03:49:25;27.10;;;24.70;;
24813;SDS011;12904;50.088;11.414;2022-08-19T03:51:55;24.15;;;21.80;;
24813;SDS011;12904;50.088;11.414;2022-08-19T03:54:22;25.98;;;23.60;;
24813;SDS011;12904;50.088;11.414;2022-08-19T03:56:51;26.27;;;23.63;;
24813;SDS011;12904;50.088;11.414;2022-08-19T03:59:21;26.95;;;24.60;;
24813;SDS011;12904;50.088;11.414;2022-08-19T04:01:51;27.52;;;24.60;;
24813;SDS011;12904;50.088;11.414;2022-08-19T04:04:18;27.05;;;24.65;;
24813;SDS011;12904;50.088;11.414;2022-08-19T04:06:44;25.17;;;23.20;;
24813;SDS011;12904;50.088;11.414;2022-08-19T04:09:11;27.65;;;24.85;;
24813;SDS011;12904;50.088;11.414;2022-08-19T04:11:38;26.50;;;24.00;;
24813;SDS011;12904;50.088;11.414;2022-08-19T04:14:16;24.83;;;22.65;;
24813;SDS011;12904;50.088;11.414;2022-08-19T04:16:44;25.17;;;23.05;;
24813;SDS011;12904;50.088;11.414;2022-08-19T04:19:12;24.52;;;22.20;;
24813;SDS011;12904;50.088;11.414;2022-08-19T04:21:39;26.27;;;23.95;;
24813;SDS011;12904;50.088;11.414;2022-08-19T04:24:05;26.67;;;24.23;;
24813;SDS011;12904;50.088;11.414;2022-08-19T04:26:32;26.70;;;23.95;;
24813;SDS011;12904;50.088;11.414;2022-08-19T04:29:01;28.40;;;25.80;;
24813;SDS011;12904;50.088;11.414;2022-08-19T04:31:30;27.45;;;24.63;;
24813;SDS011;12904;50.088;11.414;2022-08-19T04:34:00;27.70;;;25.23;;
24813;SDS011;12904;50.088;11.414;2022-08-19T04:36:29;25.45;;;23.00;;
24813;SDS011;12904;50.088;11.414;2022-08-19T04:38:57;24.67;;;22.63;;
24813;SDS011;12904;50.088;11.414;2022-08-19T04:41:25;24.48;;;22.30;;
24813;SDS011;12904;50.088;11.414;2022-08-19T04:44:09;24.27;;;22.27;;
24813;SDS011;12904;50.088;11.414;2022-08-19T04:46:36;23.95;;;21.75;;
24813;SDS011;12904;50.088;11.414;2022-08-19T04:49:03;22.70;;;20.80;;
24813;SDS011;12904;50.088;11.414;2022-08-19T04:51:30;24.33;;;22.25;;
24813;SDS011;12904;50.088;11.414;2022-08-19T04:53:57;24.00;;;21.90;;
24813;SDS011;12904;50.088;11.414;2022-08-19T04:56:25;22.65;;;20.92;;
24813;SDS011;12904;50.088;11.414;2022-08-19T04:58:51;22.23;;;20.50;;
24813;SDS011;12904;50.088;11.414;2022-08-19T05:01:26;22.70;;;20.90;;
24813;SDS011;12904;50.088;11.414;2022-08-19T05:03:53;22.85;;;20.95;;
24813;SDS011;12904;50.088;11.414;2022-08-19T05:06:20;21.75;;;19.95;;
24813;SDS011;12904;50.088;11.414;2022-08-19T05:08:47;25.02;;;22.92;;
24813;SDS011;12904;50.088;11.414;2022-08-19T05:11:15;23.15;;;21.35;;
24813;SDS011;12904;50.088;11.414;2022-08-19T05:13:44;24.90;;;22.67;;
24813;SDS011;12904;50.088;11.414;2022-08-19T05:16:10;25.30;;;23.00;;
24813;SDS011;12904;50.088;11.414;2022-08-19T05:18:38;23.60;;;21.45;;
24813;SDS011;12904;50.088;11.414;2022-08-19T05:21:23;23.77;;;21.90;;
24813;SDS011;12904;50.088;11.414;2022-08-19T05:24:08;23.30;;;21.40;;
24813;SDS011;12904;50.088;11.414;2022-08-19T05:26:41;23.83;;;21.60;;
24813;SDS011;12904;50.088;11.414;2022-08-19T05:29:11;26.55;;;23.92;;
24813;SDS011;12904;50.088;11.414;2022-08-19T05:31:38;23.80;;;21.67;;
24813;SDS011;12904;50.088;11.414;2022-08-19T05:34:04;23.95;;;21.45;;
24813;SDS011;12904;50.088;11.414;2022-08-19T05:36:35;26.00;;;23.80;;
24813;SDS011;12904;50.088;11.414;2022-08-19T05:39:06;25.40;;;23.08;;
24813;SDS011;12904;50.088;11.414;2022-08-19T05:41:33;24.75;;;22.40;;
24813;SDS011;12904;50.088;11.414;2022-08-19T05:44:03;25.50;;;23.10;;
24813;SDS011;12904;50.088;11.414;2022-08-19T05:46:34;27.08;;;24.38;;
24813;SDS011;12904;50.088;11.414;2022-08-19T05:49:02;27.45;;;24.95;;
24813;SDS011;12904;50.088;11.414;2022-08-19T05:51:29;27.75;;;25.00;;
24813;SDS011;12904;50.088;11.414;2022-08-19T05:53:55;28.15;;;25.42;;
24813;SDS011;12904;50.088;11.414;2022-08-19T05:56:21;27.15;;;24.67;;
24813;SDS011;12904;50.088;11.414;2022-08-19T05:58:46;27.60;;;24.95;;
24813;SDS011;12904;50.088;11.414;2022-08-19T06:01:13;27.30;;;24.95;;
24813;SDS011;12904;50.088;11.414;2022-08-19T06:03:44;27.63;;;25.20;;
24813;SDS011;12904;50.088;11.414;2022-08-19T06:06:11;26.38;;;23.90;;
24813;SDS011;12904;50.088;11.414;2022-08-19T06:08:38;26.70;;;24.20;;
24813;SDS011;12904;50.088;11.414;2022-08-19T06:13:50;25.88;;;23.48;;
24813;SDS011;12904;50.088;11.414;2022-08-19T06:16:21;26.45;;;24.05;;
24813;SDS011;12904;50.088;11.414;2022-08-19T06:18:50;27.60;;;25.13;;
24813;SDS011;12904;50.088;11.414;2022-08-19T06:21:27;29.92;;;26.98;;
24813;SDS011;12904;50.088;11.414;2022-08-19T06:23:57;28.85;;;25.83;;
24813;SDS011;12904;50.088;11.414;2022-08-19T06:26:23;29.45;;;26.40;;
24813;SDS011;12904;50.088;11.414;2022-08-19T06:28:50;33.45;;;26.17;;
24813;SDS011;12904;50.088;11.414;2022-08-19T06:31:21;32.15;;;27.02;;
24813;SDS011;12904;50.088;11.414;2022-08-19T06:33:49;29.95;;;26.85;;
24813;SDS011;12904;50.088;11.414;2022-08-19T06:36:25;27.52;;;24.67;;
24813;SDS011;12904;50.088;11.414;2022-08-19T06:38:54;27.77;;;24.92;;
24813;SDS011;12904;50.088;11.414;2022-08-19T06:41:22;29.77;;;25.77;;
24813;SDS011;12904;50.088;11.414;2022-08-19T06:43:50;27.88;;;25.27;;
24813;SDS011;12904;50.088;11.414;2022-08-19T06:46:16;28.20;;;25.38;;
24813;SDS011;12904;50.088;11.414;2022-08-19T06:48:43;31.30;;;27.52;;
24813;SDS011;12904;50.088;11.414;2022-08-19T06:51:10;28.42;;;25.70;;
24813;SDS011;12904;50.088;11.414;2022-08-19T06:53:36;30.00;;;26.42;;
24813;SDS011;12904;50.088;11.414;2022-08-19T06:56:04;31.20;;;27.73;;
24813;SDS011;12904;50.088;11.414;2022-08-19T06:58:30;28.38;;;25.52;;
24813;SDS011;12904;50.088;11.414;2022-08-19T07:01:02;29.60;;;26.38;;
24813;SDS011;12904;50.088;11.414;2022-08-19T07:03:29;30.92;;;27.65;;
24813;SDS011;12904;50.088;11.414;2022-08-19T07:05:57;30.20;;;27.30;;
24813;SDS011;12904;50.088;11.414;2022-08-19T07:08:31;31.35;;;28.00;;
24813;SDS011;12904;50.088;11.414;2022-08-19T07:10:58;30.08;;;27.17;;
24813;SDS011;12904;50.088;11.414;2022-08-19T07:13:23;32.08;;;27.98;;
24813;SDS011;12904;50.088;11.414;2022-08-19T07:15:49;30.50;;;26.33;;
24813;SDS011;12904;50.088;11.414;2022-08-19T07:18:17;30.15;;;26.92;;
24813;SDS011;12904;50.088;11.414;2022-08-19T07:20:44;31.73;;;27.40;;
24813;SDS011;12904;50.088;11.414;2022-08-19T07:23:11;29.38;;;25.98;;
24813;SDS011;12904;50.088;11.414;2022-08-19T07:25:37;29.48;;;26.55;;
24813;SDS011;12904;50.088;11.414;2022-08-19T07:28:03;29.58;;;25.83;;
24813;SDS011;12904;50.088;11.414;2022-08-19T07:30:29;34.00;;;25.98;;
24813;SDS011;12904;50.088;11.414;2022-08-19T07:32:55;33.55;;;24.83;;
24813;SDS011;12904;50.088;11.414;2022-08-19T07:35:22;27.50;;;24.63;;
24813;SDS011;12904;50.088;11.414;2022-08-19T07:37:48;24.98;;;22.67;;
24813;SDS011;12904;50.088;11.414;2022-08-19T07:40:14;25.05;;;22.55;;
24813;SDS011;12904;50.088;11.414;2022-08-19T07:42:40;24.80;;;22.27;;
24813;SDS011;12904;50.088;11.414;2022-08-19T07:45:07;25.25;;;23.10;;
24813;SDS011;12904;50.088;11.414;2022-08-19T07:47:33;25.80;;;23.17;;
24813;SDS011;12904;50.088;11.414;2022-08-19T07:49:59;25.63;;;23.05;;
24813;SDS011;12904;50.088;11.414;2022-08-19T07:52:24;24.77;;;22.55;;
24813;SDS011;12904;50.088;11.414;2022-08-19T07:54:50;24.73;;;22.50;;
24813;SDS011;12904;50.088;11.414;2022-08-19T07:57:16;26.13;;;23.75;;
24813;SDS011;12904;50.088;11.414;2022-08-19T07:59:42;25.55;;;22.95;;
24813;SDS011;12904;50.088;11.414;2022-08-19T08:02:08;26.48;;;24.02;;
24813;SDS011;12904;50.088;11.414;2022-08-19T08:04:34;25.83;;;23.52;;
24813;SDS011;12904;50.088;11.414;2022-08-19T08:07:18;25.90;;;23.58;;
24813;SDS011;12904;50.088;11.414;2022-08-19T08:10:03;25.52;;;23.05;;
24813;SDS011;12904;50.088;11.414;2022-08-19T08:12:33;23.80;;;21.63;;
24813;SDS011;12904;50.088;11.414;2022-08-19T08:15:06;28.60;;;25.58;;
24813;SDS011;12904;50.088;11.414;2022-08-19T08:17:35;28.17;;;25.42;;
24813;SDS011;12904;50.088;11.414;2022-08-19T08:20:04;27.45;;;24.60;;
24813;SDS011;12904;50.088;11.414;2022-08-19T08:22:33;27.20;;;24.38;;
24813;SDS011;12904;50.088;11.414;2022-08-19T08:25:19;26.52;;;24.13;;
24813;SDS011;12904;50.088;11.414;2022-08-19T08:27:47;27.60;;;24.70;;
24813;SDS011;12904;50.088;11.414;2022-08-19T08:30:25;27.35;;;24.58;;
24813;SDS011;12904;50.088;11.414;2022-08-19T08:32:51;31.75;;;25.67;;
24813;SDS011;12904;50.088;11.414;2022-08-19T08:35:19;27.55;;;24.77;;
24813;SDS011;12904;50.088;11.414;2022-08-19T08:37:47;27.83;;;24.83;;
24813;SDS011;12904;50.088;11.414;2022-08-19T08:40:37;33.03;;;25.63;;
24813;SDS011;12904;50.088;11.414;2022-08-19T08:43:08;27.13;;;24.40;;
24813;SDS011;12904;50.088;11.414;2022-08-19T08:51:29;35.75;;;26.13;;
24813;SDS011;12904;50.088;11.414;2022-08-19T08:54:00;29.02;;;25.10;;
24813;SDS011;12904;50.088;11.414;2022-08-19T08:56:28;30.83;;;24.45;;
24813;SDS011;12904;50.088;11.414;2022-08-19T08:58:59;27.30;;;24.65;;
24813;SDS011;12904;50.088;11.414;2022-08-19T09:02:03;27.23;;;23.23;;
24813;SDS011;12904;50.088;11.414;2022-08-19T09:04:29;25.88;;;23.45;;
24813;SDS011;12904;50.088;11.414;2022-08-19T09:09:40;24.38;;;22.15;;
24813;SDS011;12904;50.088;11.414;2022-08-19T09:15:06;25.90;;;23.27;;
24813;SDS011;12904;50.088;11.414;2022-08-19T09:17:34;25.15;;;22.73;;
24813;SDS011;12904;50.088;11.414;2022-08-19T09:20:06;25.13;;;22.25;;
24813;SDS011;12904;50.088;11.414;2022-08-19T09:22:41;23.45;;;21.23;;
24813;SDS011;12904;50.088;11.414;2022-08-19T09:25:11;23.55;;;21.33;;
24813;SDS011;12904;50.088;11.414;2022-08-19T09:27:39;23.48;;;21.20;;
24813;SDS011;12904;50.088;11.414;2022-08-19T09:30:07;23.35;;;21.23;;
24813;SDS011;12904;50.088;11.414;2022-08-19T09:32:34;22.70;;;20.85;;
24813;SDS011;12904;50.088;11.414;2022-08-19T09:35:00;23.42;;;21.17;;
24813;SDS011;12904;50.088;11.414;2022-08-19T09:37:26;23.75;;;21.35;;
24813;SDS011;12904;50.088;11.414;2022-08-19T09:39:52;22.35;;;20.55;;
24813;SDS011;12904;50.088;11.414;2022-08-19T09:42:18;22.27;;;20.25;;
24813;SDS011;12904;50.088;11.414;2022-08-19T09:44:44;22.10;;;20.30;;
24813;SDS011;12904;50.088;11.414;2022-08-19T09:47:10;21.58;;;19.33;;
24813;SDS011;12904;50.088;11.414;2022-08-19T09:49:38;18.73;;;17.23;;
24813;SDS011;12904;50.088;11.414;2022-08-19T09:52:04;18.67;;;17.38;;
24813;SDS011;12904;50.088;11.414;2022-08-19T09:54:32;18.08;;;16.60;;
24813;SDS011;12904;50.088;11.414;2022-08-19T09:56:59;16.20;;;14.80;;
24813;SDS011;12904;50.088;11.414;2022-08-19T09:59:29;17.30;;;15.77;;
24813;SDS011;12904;50.088;11.414;2022-08-19T10:01:55;16.92;;;15.73;;
24813;SDS011;12904;50.088;11.414;2022-08-19T10:04:20;15.85;;;14.43;;
24813;SDS011;12904;50.088;11.414;2022-08-19T10:06:47;14.95;;;13.68;;
24813;SDS011;12904;50.088;11.414;2022-08-19T10:09:15;17.00;;;15.45;;
24813;SDS011;12904;50.088;11.414;2022-08-19T10:11:43;17.88;;;16.38;;
24813;SDS011;12904;50.088;11.414;2022-08-19T10:14:14;18.65;;;17.15;;
24813;SDS011;12904;50.088;11.414;2022-08-19T10:16:41;19.30;;;17.65;;
24813;SDS011;12904;50.088;11.414;2022-08-19T10:19:07;20.02;;;18.45;;
24813;SDS011;12904;50.088;11.414;2022-08-19T10:21:34;21.23;;;19.15;;
24813;SDS011;12904;50.088;11.414;2022-08-19T10:24:02;19.45;;;17.52;;
24813;SDS011;12904;50.088;11.414;2022-08-19T10:26:31;20.38;;;18.65;;
24813;SDS011;12904;50.088;11.414;2022-08-19T10:29:04;19.27;;;17.77;;
24813;SDS011;12904;50.088;11.414;2022-08-19T10:31:31;19.08;;;17.42;;
24813;SDS011;12904;50.088;11.414;2022-08-19T10:33:59;19.48;;;17.80;;
24813;SDS011;12904;50.088;11.414;2022-08-19T10:36:26;18.63;;;16.73;;
24813;SDS011;12904;50.088;11.414;2022-08-19T10:38:55;18.73;;;17.15;;
24813;SDS011;12904;50.088;11.414;2022-08-19T10:41:24;17.90;;;16.35;;
24813;SDS011;12904;50.088;11.414;2022-08-19T10:43:53;17.10;;;15.88;;
24813;SDS011;12904;50.088;11.414;2022-08-19T10:46:20;17.98;;;16.23;;
24813;SDS011;12904;50.088;11.414;2022-08-19T10:48:48;17.10;;;15.70;;
24813;SDS011;12904;50.088;11.414;2022-08-19T10:51:14;17.40;;;16.10;;
24813;SDS011;12904;50.088;11.414;2022-08-19T10:54:00;17.25;;;15.85;;
24813;SDS011;12904;50.088;11.414;2022-08-19T10:56:27;18.17;;;16.35;;
24813;SDS011;12904;50.088;11.414;2022-08-19T10:59:12;16.25;;;14.75;;
24813;SDS011;12904;50.088;11.414;2022-08-19T11:01:39;14.43;;;13.32;;
24813;SDS011;12904;50.088;11.414;2022-08-19T11:04:07;14.13;;;13.10;;
24813;SDS011;12904;50.088;11.414;2022-08-19T11:06:36;11.13;;;9.52;;
24813;SDS011;12904;50.088;11.414;2022-08-19T11:09:03;7.38;;;6.78;;
24813;SDS011;12904;50.088;11.414;2022-08-19T11:11:30;6.32;;;5.72;;
24813;SDS011;12904;50.088;11.414;2022-08-19T11:13:57;5.38;;;4.97;;
24813;SDS011;12904;50.088;11.414;2022-08-19T11:16:25;5.05;;;4.32;;
24813;SDS011;12904;50.088;11.414;2022-08-19T11:18:53;4.50;;;4.10;;
24813;SDS011;12904;50.088;11.414;2022-08-19T11:21:33;4.13;;;3.70;;
24813;SDS011;12904;50.088;11.414;2022-08-19T11:24:05;4.53;;;4.18;;
24813;SDS011;12904;50.088;11.414;2022-08-19T11:26:34;4.22;;;3.83;;
24813;SDS011;12904;50.088;11.414;2022-08-19T11:29:02;4.13;;;3.72;;
24813;SDS011;12904;50.088;11.414;2022-08-19T11:31:29;4.15;;;3.40;;
24813;SDS011;12904;50.088;11.414;2022-08-19T11:33:57;3.85;;;3.25;;
24813;SDS011;12904;50.088;11.414;2022-08-19T11:36:24;2.70;;;2.47;;
24813;SDS011;12904;50.088;11.414;2022-08-19T11:38:51;2.95;;;2.65;;
24813;SDS011;12904;50.088;11.414;2022-08-19T11:41:18;4.03;;;3.00;;
24813;SDS011;12904;50.088;11.414;2022-08-19T11:43:45;3.20;;;2.90;;
24813;SDS011;12904;50.088;11.414;2022-08-19T11:46:12;3.22;;;2.67;;
24813;SDS011;12904;50.088;11.414;2022-08-19T11:48:39;2.75;;;2.55;;
24813;SDS011;12904;50.088;11.414;2022-08-19T11:51:07;3.15;;;2.85;;
24813;SDS011;12904;50.088;11.414;2022-08-19T11:53:38;2.83;;;2.63;;
24813;SDS011;12904;50.088;11.414;2022-08-19T11:56:04;3.05;;;2.72;;
24813;SDS011;12904;50.088;11.414;2022-08-19T11:58:32;2.67;;;2.47;;
24813;SDS011;12904;50.088;11.414;2022-08-19T12:00:59;4.22;;;2.20;;
24813;SDS011;12904;50.088;11.414;2022-08-19T12:03:24;2.80;;;2.30;;
24813;SDS011;12904;50.088;11.414;2022-08-19T12:05:50;3.55;;;2.75;;
24813;SDS011;12904;50.088;11.414;2022-08-19T12:08:16;4.28;;;3.45;;
24813;SDS011;12904;50.088;11.414;2022-08-19T12:10:43;3.35;;;3.15;;
24813;SDS011;12904;50.088;11.414;2022-08-19T12:13:10;3.42;;;3.22;;
24813;SDS011;12904;50.088;11.414;2022-08-19T12:15:39;2.80;;;2.60;;
24813;SDS011;12904;50.088;11.414;2022-08-19T12:18:06;3.97;;;3.67;;
24813;SDS011;12904;50.088;11.414;2022-08-19T12:20:36;4.72;;;4.32;;
24813;SDS011;12904;50.088;11.414;2022-08-19T12:23:03;3.97;;;3.53;;
24813;SDS011;12904;50.088;11.414;2022-08-19T12:25:29;4.25;;;3.95;;
24813;SDS011;12904;50.088;11.414;2022-08-19T12:27:56;4.57;;;4.22;;
24813;SDS011;12904;50.088;11.414;2022-08-19T12:30:22;4.82;;;4.43;;
24813;SDS011;12904;50.088;11.414;2022-08-19T12:32:49;4.47;;;4.18;;
24813;SDS011;12904;50.088;11.414;2022-08-19T12:35:16;4.45;;;4.15;;
24813;SDS011;12904;50.088;11.414;2022-08-19T12:37:45;5.35;;;4.32;;
24813;SDS011;12904;50.088;11.414;2022-08-19T12:40:12;5.75;;;5.35;;
24813;SDS011;12904;50.088;11.414;2022-08-19T12:42:39;6.03;;;5.63;;
24813;SDS011;12904;50.088;11.414;2022-08-19T12:45:09;6.72;;;6.10;;
24813;SDS011;12904;50.088;11.414;2022-08-19T12:47:36;6.72;;;6.22;;
24813;SDS011;12904;50.088;11.414;2022-08-19T12:50:02;6.30;;;5.88;;
24813;SDS011;12904;50.088;11.414;2022-08-19T12:52:29;6.07;;;5.57;;
24813;SDS011;12904;50.088;11.414;2022-08-19T12:54:55;7.72;;;7.00;;
24813;SDS011;12904;50.088;11.414;2022-08-19T12:57:23;7.38;;;6.78;;
24813;SDS011;12904;50.088;11.414;2022-08-19T12:59:53;7.22;;;6.65;;
24813;SDS011;12904;50.088;11.414;2022-08-19T13:02:19;7.07;;;6.50;;
24813;SDS011;12904;50.088;11.414;2022-08-19T13:04:46;7.90;;;7.38;;
24813;SDS011;12904;50.088;11.414;2022-08-19T13:07:15;7.40;;;6.90;;
24813;SDS011;12904;50.088;11.414;2022-08-19T13:09:40;8.35;;;7.57;;
24813;SDS011;12904;50.088;11.414;2022-08-19T13:12:07;7.68;;;7.18;;
24813;SDS011;12904;50.088;11.414;2022-08-19T13:14:37;7.85;;;7.28;;
24813;SDS011;12904;50.088;11.414;2022-08-19T13:17:05;8.48;;;7.85;;
24813;SDS011;12904;50.088;11.414;2022-08-19T13:19:31;8.48;;;7.63;;
24813;SDS011;12904;50.088;11.414;2022-08-19T13:21:57;8.35;;;7.60;;
24813;SDS011;12904;50.088;11.414;2022-08-19T13:24:24;8.85;;;7.93;;
24813;SDS011;12904;50.088;11.414;2022-08-19T13:26:50;8.95;;;8.02;;
24813;SDS011;12904;50.088;11.414;2022-08-19T13:29:15;8.00;;;7.40;;
24813;SDS011;12904;50.088;11.414;2022-08-19T13:32:00;8.98;;;8.25;;
24813;SDS011;12904;50.088;11.414;2022-08-19T13:34:44;7.53;;;6.80;;
24813;SDS011;12904;50.088;11.414;2022-08-19T13:37:11;7.95;;;7.35;;
24813;SDS011;12904;50.088;11.414;2022-08-19T13:39:38;7.75;;;7.15;;
24813;SDS011;12904;50.088;11.414;2022-08-19T13:42:03;8.40;;;7.57;;
24813;SDS011;12904;50.088;11.414;2022-08-19T13:44:31;7.25;;;6.63;;
24813;SDS011;12904;50.088;11.414;2022-08-19T13:47:00;7.60;;;7.13;;
24813;SDS011;12904;50.088;11.414;2022-08-19T13:49:32;6.57;;;6.00;;
24813;SDS011;12904;50.088;11.414;2022-08-19T13:51:58;7.22;;;6.55;;
24813;SDS011;12904;50.088;11.414;2022-08-19T13:54:24;6.63;;;6.15;;
24813;SDS011;12904;50.088;11.414;2022-08-19T13:56:49;7.15;;;6.57;;
24813;SDS011;12904;50.088;11.414;2022-08-19T13:59:15;8.63;;;6.38;;
24813;SDS011;12904;50.088;11.414;2022-08-19T14:01:41;8.07;;;7.00;;
24813;SDS011;12904;50.088;11.414;2022-08-19T14:04:09;6.78;;;6.28;;
24813;SDS011;12904;50.088;11.414;2022-08-19T14:06:35;7.75;;;7.22;;
24813;SDS011;12904;50.088;11.414;2022-08-19T14:09:00;7.78;;;7.03;;
24813;SDS011;12904;50.088;11.414;2022-08-19T14:11:27;6.82;;;6.22;;
24813;SDS011;12904;50.088;11.414;2022-08-19T14:13:53;7.78;;;7.18;;
24813;SDS011;12904;50.088;11.414;2022-08-19T14:16:19;7.90;;;7.07;;
24813;SDS011;12904;50.088;11.414;2022-08-19T14:18:46;7.75;;;7.15;;
24813;SDS011;12904;50.088;11.414;2022-08-19T14:21:16;7.28;;;6.68;;
24813;SDS011;12904;50.088;11.414;2022-08-19T14:23:45;8.52;;;7.82;;
24813;SDS011;12904;50.088;11.414;2022-08-19T14:26:12;7.80;;;7.30;;
24813;SDS011;12904;50.088;11.414;2022-08-19T14:28:40;7.82;;;7.32;;
24813;SDS011;12904;50.088;11.414;2022-08-19T14:31:07;7.65;;;6.82;;
24813;SDS011;12904;50.088;11.414;2022-08-19T14:33:37;7.05;;;6.50;;
24813;SDS011;12904;50.088;11.414;2022-08-19T14:36:03;8.00;;;7.47;;
24813;SDS011;12904;50.088;11.414;2022-08-19T14:38:29;8.93;;;7.15;;